Time;durP1;ratioP1;P1;durP2;ratioP2;P2;SDS_P1;SDS_P2;PMS_P1;PMS_P2;Temp;Humidity;BMP_temperature;BMP_pressure;BME280_temperature;BME280_humidity;BME280_pressure;Samples;Min_cycle;Max_cycle;Signal;HPM_P1;HPM_P2
2022/02/22 00:00:35;;;;;;;33.60;6.65;;;7.60;1.00;;;;;;5117598;28;20067;-70
2022/02/22 00:03:01;;;;;;;38.50;6.25;;;7.60;1.00;;;;;;5117376;28;20036;-70
2022/02/22 00:08:02;;;;;;;19.52;5.90;;;7.60;1.00;;;;;;5360516;22;20084;-73
2022/02/22 00:10:28;;;;;;;36.95;7.45;;;7.50;1.00;;;;;;5078125;28;20032;-74
2022/02/22 00:12:54;;;;;;;35.60;7.30;;;7.40;1.00;;;;;;5076606;28;20055;-73
2022/02/22 00:15:20;;;;;;;33.90;5.97;;;7.30;1.00;;;;;;5084293;28;20543;-73
2022/02/22 00:17:45;;;;;;;37.95;6.40;;;7.40;1.00;;;;;;5076761;28;20090;-73
2022/02/22 00:20:12;;;;;;;33.80;7.18;;;7.40;1.00;;;;;;5078149;28;20090;-74
2022/02/22 00:22:38;;;;;;;33.85;6.00;;;7.40;1.00;;;;;;5076456;28;20110;-74
2022/02/22 00:25:05;;;;;;;40.33;6.10;;;7.30;1.00;;;;;;5095140;28;20040;-73
2022/02/22 00:27:31;;;;;;;37.42;7.85;;;7.30;1.00;;;;;;5095632;28;20044;-74
2022/02/22 00:29:57;;;;;;;37.95;6.45;;;7.30;1.00;;;;;;5078580;28;20068;-73
2022/02/22 00:32:23;;;;;;;38.08;6.85;;;7.40;1.00;;;;;;5076537;28;20076;-73
2022/02/22 00:34:49;;;;;;;30.08;5.22;;;7.30;1.00;;;;;;5076489;28;20085;-73
2022/02/22 00:37:16;;;;;;;46.10;6.75;;;7.30;1.00;;;;;;5078776;28;20513;-73
2022/02/22 00:39:42;;;;;;;33.70;6.20;;;7.30;1.00;;;;;;5076306;28;20048;-73
2022/02/22 00:42:07;;;;;;;32.40;5.68;;;7.30;1.00;;;;;;5080552;28;20051;-74
2022/02/22 00:44:33;;;;;;;30.85;6.05;;;7.20;1.00;;;;;;5083485;28;20124;-74
2022/02/22 00:46:59;;;;;;;29.95;5.53;;;7.20;1.00;;;;;;5094818;28;20071;-74
2022/02/22 00:49:25;;;;;;;43.33;6.85;;;7.10;1.00;;;;;;5090530;28;20043;-74
2022/02/22 00:51:51;;;;;;;41.70;7.78;;;7.10;1.00;;;;;;5075839;28;20104;-74
2022/02/22 00:54:17;;;;;;;43.08;7.15;;;7.20;1.00;;;;;;5082185;28;20036;-73
2022/02/22 00:56:42;;;;;;;28.27;5.70;;;7.30;1.00;;;;;;5084892;28;20120;-73
2022/02/22 00:59:08;;;;;;;37.53;6.72;;;7.20;1.00;;;;;;5096437;28;20381;-73
2022/02/22 01:01:34;;;;;;;27.15;5.72;;;7.10;1.00;;;;;;5083219;28;20048;-73
2022/02/22 01:04:00;;;;;;;34.63;5.85;;;7.30;1.00;;;;;;5075728;28;20474;-73
2022/02/22 01:06:26;;;;;;;44.15;8.48;;;7.40;1.00;;;;;;5075841;28;20132;-73
2022/02/22 01:08:52;;;;;;;36.72;6.43;;;7.20;1.00;;;;;;5075504;28;20054;-73
2022/02/22 01:11:17;;;;;;;34.88;6.60;;;7.00;1.00;;;;;;5075623;28;20135;-73
2022/02/22 01:13:43;;;;;;;36.50;6.50;;;6.80;1.00;;;;;;5087844;28;20055;-73
2022/02/22 01:16:09;;;;;;;39.08;7.45;;;6.90;1.00;;;;;;5095049;28;20119;-73
2022/02/22 01:18:35;;;;;;;38.00;6.78;;;7.10;1.00;;;;;;5096163;28;20051;-74
2022/02/22 01:21:01;;;;;;;38.30;6.10;;;7.10;1.00;;;;;;5095528;28;20508;-74
2022/02/22 01:23:27;;;;;;;28.75;6.25;;;7.10;1.00;;;;;;5095406;28;20032;-74
2022/02/22 01:25:56;;;;;;;30.90;5.60;;;7.10;1.00;;;;;;5093484;28;20032;-73
2022/02/22 01:28:22;;;;;;;18.80;4.28;;;7.20;1.00;;;;;;5089924;28;20047;-73
2022/02/22 01:30:48;;;;;;;31.17;5.32;;;7.10;1.00;;;;;;5094918;28;20028;-73
2022/02/22 01:33:13;;;;;;;33.58;5.93;;;7.30;1.00;;;;;;5094606;28;20509;-73
2022/02/22 01:35:40;;;;;;;35.70;6.18;;;7.20;1.00;;;;;;5078020;28;20032;-73
2022/02/22 01:38:06;;;;;;;34.30;5.78;;;7.10;1.00;;;;;;5083214;28;20106;-73
2022/02/22 01:40:31;;;;;;;30.63;6.35;;;7.10;1.00;;;;;;5084562;28;20036;-74
2022/02/22 01:42:57;;;;;;;33.42;7.68;;;7.20;1.00;;;;;;5083742;28;20097;-73
2022/02/22 01:45:24;;;;;;;28.60;5.70;;;7.00;1.00;;;;;;5085044;28;20036;-73
2022/02/22 01:47:49;;;;;;;37.38;6.18;;;7.20;1.00;;;;;;5095094;28;20036;-73
2022/02/22 01:50:15;;;;;;;36.22;5.70;;;7.00;1.00;;;;;;5080394;28;20571;-73
2022/02/22 01:52:41;;;;;;;28.05;6.43;;;6.90;1.00;;;;;;5074474;28;20079;-73
2022/02/22 01:55:08;;;;;;;31.33;5.70;;;7.10;1.00;;;;;;5075864;28;20043;-73
2022/02/22 01:57:34;;;;;;;29.13;5.80;;;7.20;1.00;;;;;;5075143;28;20067;-73
2022/02/22 02:00:04;;;;;;;37.65;6.15;;;7.10;1.00;;;;;;5075547;28;20102;-73
2022/02/22 02:02:30;;;;;;;32.83;6.47;;;7.20;1.00;;;;;;5087793;28;20036;-73
2022/02/22 02:04:56;;;;;;;34.33;6.18;;;7.20;1.00;;;;;;5094681;28;20036;-73
2022/02/22 02:07:22;;;;;;;30.60;5.22;;;7.20;1.00;;;;;;5084108;28;20043;-73
2022/02/22 02:09:48;;;;;;;22.38;5.25;;;7.30;1.00;;;;;;5074932;28;20071;-73
2022/02/22 02:12:14;;;;;;;28.10;5.38;;;7.30;1.00;;;;;;5081513;28;20048;-73
2022/02/22 02:14:40;;;;;;;35.47;6.13;;;7.20;1.00;;;;;;5095179;28;20513;-73
2022/02/22 02:17:06;;;;;;;29.65;5.68;;;7.20;1.00;;;;;;5085857;28;20037;-73
2022/02/22 02:19:31;;;;;;;29.63;5.05;;;7.30;1.00;;;;;;5085396;28;20460;-73
2022/02/22 02:21:59;;;;;;;32.60;5.70;;;7.40;1.00;;;;;;5095304;28;20420;-73
2022/02/22 02:24:26;;;;;;;38.25;6.47;;;7.30;1.00;;;;;;5095251;28;20040;-73
2022/02/22 02:26:54;;;;;;;41.13;6.45;;;7.50;1.00;;;;;;5094878;28;20115;-74
2022/02/22 02:29:22;;;;;;;36.90;6.88;;;7.50;1.00;;;;;;5084847;28;20036;-74
2022/02/22 02:31:50;;;;;;;35.05;7.90;;;7.50;1.00;;;;;;5074733;28;20084;-74
2022/02/22 02:34:19;;;;;;;29.23;5.70;;;7.50;1.00;;;;;;5075103;28;20071;-73
2022/02/22 02:36:45;;;;;;;40.15;6.78;;;7.50;1.00;;;;;;5074720;28;20045;-74
2022/02/22 02:39:12;;;;;;;38.17;7.15;;;7.50;1.00;;;;;;5075023;28;20378;-73
2022/02/22 02:41:42;;;;;;;38.90;6.80;;;7.50;1.00;;;;;;5074402;28;20037;-74
2022/02/22 02:44:11;;;;;;;40.33;5.78;;;7.30;1.00;;;;;;5074683;28;20045;-74
2022/02/22 02:46:38;;;;;;;24.45;5.15;;;7.40;1.00;;;;;;5074590;28;20039;-73
2022/02/22 02:49:05;;;;;;;31.52;6.65;;;7.40;1.00;;;;;;5074725;28;20097;-74
2022/02/22 02:51:31;;;;;;;29.50;5.80;;;7.40;1.00;;;;;;5074539;28;20047;-73
2022/02/22 02:53:57;;;;;;;30.23;5.60;;;7.40;1.00;;;;;;5074326;28;20041;-73
2022/02/22 02:56:24;;;;;;;35.03;6.57;;;7.40;1.00;;;;;;5087490;28;20040;-73
2022/02/22 02:58:58;;;;;;;32.63;5.82;;;7.40;1.00;;;;;;5094714;28;20036;-73
2022/02/22 03:01:25;;;;;;;30.33;5.78;;;7.40;1.00;;;;;;5095457;28;20065;-73
2022/02/22 03:03:51;;;;;;;32.15;5.57;;;7.50;1.00;;;;;;5094438;28;20048;-73
2022/02/22 03:06:18;;;;;;;33.05;6.15;;;7.40;1.00;;;;;;5094309;28;20020;-74
2022/02/22 03:08:44;;;;;;;29.27;5.93;;;7.30;1.00;;;;;;5086450;28;20446;-74
2022/02/22 03:11:11;;;;;;;29.00;5.13;;;7.40;1.00;;;;;;5088548;28;20036;-74
2022/02/22 03:13:37;;;;;;;27.77;4.95;;;7.30;1.00;;;;;;5093937;28;20032;-74
2022/02/22 03:16:04;;;;;;;28.70;4.95;;;7.20;1.00;;;;;;5093853;28;20075;-74
2022/02/22 03:18:30;;;;;;;31.63;5.57;;;7.20;1.00;;;;;;5094249;28;20032;-74
2022/02/22 03:20:56;;;;;;;30.15;5.45;;;7.20;1.00;;;;;;5094214;28;20127;-74
2022/02/22 03:23:22;;;;;;;36.15;6.03;;;7.30;1.00;;;;;;5093972;28;20064;-73
2022/02/22 03:25:49;;;;;;;35.00;5.15;;;7.40;1.00;;;;;;5093770;28;20067;-74
2022/02/22 03:28:15;;;;;;;26.38;5.45;;;7.40;1.00;;;;;;5094237;28;20036;-73
2022/02/22 03:30:41;;;;;;;31.55;5.32;;;7.40;1.00;;;;;;5093988;28;20044;-74
2022/02/22 03:33:10;;;;;;;33.45;6.38;;;7.50;1.00;;;;;;5093924;28;20036;-74
2022/02/22 03:35:37;;;;;;;23.85;5.90;;;7.40;1.00;;;;;;5093783;28;20044;-74
2022/02/22 03:38:04;;;;;;;31.00;6.07;;;7.40;1.00;;;;;;5093274;28;20032;-73
2022/02/22 03:40:30;;;;;;;30.45;5.15;;;7.30;1.00;;;;;;5097129;28;20053;-73
2022/02/22 03:42:56;;;;;;;35.25;5.55;;;7.40;1.00;;;;;;5089447;28;20398;-74
2022/02/22 03:45:22;;;;;;;28.00;5.43;;;7.50;1.00;;;;;;5076678;28;20029;-74
2022/02/22 03:47:48;;;;;;;25.30;5.30;;;7.50;1.00;;;;;;5077074;28;20432;-74
2022/02/22 03:50:15;;;;;;;27.42;5.78;;;7.50;1.00;;;;;;5077334;28;20036;-74
2022/02/22 03:52:42;;;;;;;27.67;5.75;;;7.40;1.00;;;;;;5077074;28;20173;-74
2022/02/22 03:55:09;;;;;;;23.52;4.82;;;7.40;1.00;;;;;;5077233;28;20097;-73
2022/02/22 03:57:35;;;;;;;27.55;5.60;;;7.40;1.00;;;;;;5077270;28;20054;-74
2022/02/22 04:00:06;;;;;;;28.40;5.30;;;7.40;1.00;;;;;;5076600;28;20518;-74
2022/02/22 04:02:32;;;;;;;30.20;5.60;;;7.40;1.00;;;;;;5076985;28;20036;-74
2022/02/22 04:04:59;;;;;;;28.80;5.15;;;7.30;1.00;;;;;;5076653;28;20039;-74
2022/02/22 04:07:25;;;;;;;34.33;5.50;;;7.40;1.00;;;;;;5076900;28;20126;-74
2022/02/22 04:09:51;;;;;;;28.88;5.25;;;7.40;1.00;;;;;;5077250;28;20047;-74
2022/02/22 04:12:17;;;;;;;29.77;6.07;;;7.50;1.00;;;;;;5076979;28;20048;-73
2022/02/22 04:14:44;;;;;;;29.05;5.30;;;7.40;1.00;;;;;;5077052;28;20041;-74
2022/02/22 04:17:10;;;;;;;25.83;4.90;;;7.40;1.00;;;;;;5076219;28;20347;-74
2022/02/22 04:19:35;;;;;;;24.15;4.65;;;7.40;1.00;;;;;;5077084;28;20123;-74
2022/02/22 04:22:01;;;;;;;28.33;5.50;;;7.40;1.00;;;;;;5076535;28;20548;-74
2022/02/22 04:24:27;;;;;;;32.38;5.90;;;7.30;1.00;;;;;;5076700;28;20028;-74
2022/02/22 04:26:53;;;;;;;35.88;5.43;;;7.30;1.00;;;;;;5076886;28;20433;-74
2022/02/22 04:29:19;;;;;;;29.38;5.10;;;7.30;1.00;;;;;;5076613;28;20024;-73
2022/02/22 04:31:45;;;;;;;26.65;5.45;;;7.50;1.00;;;;;;5076476;28;20045;-74
2022/02/22 04:34:11;;;;;;;25.13;5.03;;;7.50;1.00;;;;;;5076500;28;20126;-74
2022/02/22 04:36:37;;;;;;;26.90;5.63;;;7.50;1.00;;;;;;5076730;28;20076;-74
2022/02/22 04:39:05;;;;;;;26.48;5.20;;;7.50;1.00;;;;;;5076715;28;20110;-74
2022/02/22 04:41:31;;;;;;;25.17;4.88;;;7.50;1.00;;;;;;5075357;28;20403;-74
2022/02/22 04:43:57;;;;;;;24.60;5.00;;;7.40;1.00;;;;;;5076708;28;20048;-74
2022/02/22 04:46:23;;;;;;;27.10;5.82;;;7.40;1.00;;;;;;5076253;28;20059;-74
2022/02/22 04:48:50;;;;;;;34.50;6.22;;;7.50;1.00;;;;;;5076500;28;20482;-74
2022/02/22 04:51:16;;;;;;;33.40;5.18;;;7.40;1.00;;;;;;5075917;28;20041;-74
2022/02/22 04:53:41;;;;;;;31.48;5.22;;;7.50;1.00;;;;;;5076094;28;20433;-74
2022/02/22 04:56:08;;;;;;;29.10;4.97;;;7.50;1.00;;;;;;5076080;28;20069;-74
2022/02/22 04:58:33;;;;;;;30.65;4.65;;;7.40;1.00;;;;;;5076302;28;20036;-74
2022/02/22 05:00:59;;;;;;;31.90;5.80;;;7.40;1.00;;;;;;5076475;28;20093;-74
2022/02/22 05:03:25;;;;;;;24.13;4.50;;;7.40;1.00;;;;;;5076135;28;20040;-74
2022/02/22 05:05:53;;;;;;;31.73;5.18;;;7.30;1.00;;;;;;5075821;28;20040;-74
2022/02/22 05:08:20;;;;;;;27.52;5.40;;;7.30;1.00;;;;;;5075542;28;20057;-74
2022/02/22 05:10:46;;;;;;;28.75;5.60;;;7.30;1.00;;;;;;5075420;28;20055;-74
2022/02/22 05:13:12;;;;;;;22.52;4.57;;;7.30;1.00;;;;;;5075284;28;20074;-74
2022/02/22 05:15:38;;;;;;;23.33;4.43;;;7.30;1.00;;;;;;5075776;28;20375;-74
2022/02/22 05:18:04;;;;;;;24.17;4.65;;;7.30;1.00;;;;;;5075695;28;20044;-73
2022/02/22 05:20:31;;;;;;;26.20;4.57;;;7.40;1.00;;;;;;5075251;28;20153;-75
2022/02/22 05:22:59;;;;;;;29.00;4.65;;;7.40;1.00;;;;;;5075301;28;20091;-73
2022/02/22 05:25:25;;;;;;;28.08;5.13;;;7.40;1.00;;;;;;5075125;28;20498;-74
2022/02/22 05:27:51;;;;;;;21.92;4.47;;;7.50;1.00;;;;;;5075620;28;20048;-73
2022/02/22 05:30:18;;;;;;;26.17;4.68;;;7.50;1.00;;;;;;5075386;28;20041;-73
2022/02/22 05:32:44;;;;;;;22.33;4.60;;;7.50;1.00;;;;;;5075351;28;20078;-73
2022/02/22 05:35:12;;;;;;;25.27;5.07;;;7.50;1.00;;;;;;5075244;28;20059;-73
2022/02/22 05:37:39;;;;;;;28.50;5.30;;;7.60;1.00;;;;;;5074459;28;20402;-74
2022/02/22 05:40:07;;;;;;;27.58;5.47;;;7.50;1.00;;;;;;5075156;28;20112;-73
2022/02/22 05:42:33;;;;;;;31.83;5.30;;;7.50;1.00;;;;;;5074895;28;20048;-73
2022/02/22 05:45:00;;;;;;;25.55;5.20;;;7.40;1.00;;;;;;5074775;28;20029;-74
2022/02/22 05:47:27;;;;;;;30.77;5.95;;;7.30;1.00;;;;;;5075258;28;20083;-74
2022/02/22 05:49:53;;;;;;;27.42;5.13;;;7.40;1.00;;;;;;5074266;28;20063;-74
2022/02/22 05:52:19;;;;;;;29.88;6.00;;;7.40;1.00;;;;;;5074735;28;20051;-73
2022/02/22 05:54:46;;;;;;;30.73;5.93;;;7.30;1.00;;;;;;5075923;28;20032;-74
2022/02/22 05:57:13;;;;;;;25.25;4.82;;;7.40;1.00;;;;;;5083148;28;20062;-73
2022/02/22 05:59:39;;;;;;;26.75;5.38;;;7.30;1.00;;;;;;5082571;28;20039;-73
2022/02/22 06:02:04;;;;;;;32.60;5.57;;;7.30;1.00;;;;;;5083309;28;20127;-74
2022/02/22 06:04:30;;;;;;;28.65;5.60;;;7.50;1.00;;;;;;5083331;28;20077;-73
2022/02/22 06:06:56;;;;;;;28.20;5.35;;;7.50;1.00;;;;;;5084787;28;20056;-73
2022/02/22 06:09:23;;;;;;;29.25;5.78;;;7.40;1.00;;;;;;5083558;28;20040;-73
2022/02/22 06:11:49;;;;;;;27.92;5.25;;;7.30;1.00;;;;;;5083982;28;20071;-74
2022/02/22 06:14:15;;;;;;;38.33;7.13;;;7.30;1.00;;;;;;5085279;28;20053;-74
2022/02/22 06:16:41;;;;;;;26.20;5.05;;;7.30;1.00;;;;;;5083771;28;20060;-74
2022/02/22 06:19:07;;;;;;;31.85;5.85;;;7.30;1.00;;;;;;5083953;28;20117;-74
2022/02/22 06:21:33;;;;;;;30.70;5.60;;;7.40;1.00;;;;;;5075332;28;20390;-74
2022/02/22 06:23:59;;;;;;;27.90;5.65;;;7.40;1.00;;;;;;5076806;28;20115;-73
2022/02/22 06:26:25;;;;;;;29.83;4.93;;;7.40;1.00;;;;;;5074754;28;20036;-74
2022/02/22 06:28:51;;;;;;;24.52;4.75;;;7.50;1.00;;;;;;5074343;28;20047;-74
2022/02/22 06:31:17;;;;;;;31.95;5.53;;;7.50;1.00;;;;;;5074682;28;20040;-73
2022/02/22 06:33:43;;;;;;;34.47;5.30;;;7.50;1.00;;;;;;5074766;28;20041;-74
2022/02/22 06:36:09;;;;;;;33.05;5.15;;;7.50;1.00;;;;;;5074291;28;20041;-74
2022/02/22 06:38:35;;;;;;;31.33;5.35;;;7.50;1.00;;;;;;5074761;28;20094;-74
2022/02/22 06:41:01;;;;;;;26.58;4.68;;;7.50;1.00;;;;;;5074323;28;20040;-74
2022/02/22 06:43:27;;;;;;;27.67;5.60;;;7.40;1.00;;;;;;5074381;28;20039;-74
2022/02/22 06:45:53;;;;;;;30.55;4.68;;;7.40;1.00;;;;;;5074395;28;20029;-74
2022/02/22 06:48:19;;;;;;;33.20;6.13;;;7.40;1.00;;;;;;5074445;28;20040;-74
2022/02/22 06:50:45;;;;;;;25.27;5.28;;;7.50;1.00;;;;;;5074320;28;20426;-74
2022/02/22 06:53:11;;;;;;;30.08;6.80;;;7.50;1.00;;;;;;5074326;28;20102;-74
2022/02/22 06:55:38;;;;;;;24.95;4.40;;;7.50;1.00;;;;;;5074305;28;20101;-74
2022/02/22 06:58:06;;;;;;;34.42;5.45;;;7.50;1.00;;;;;;5074703;28;20478;-74
2022/02/22 07:00:38;;;;;;;26.80;5.43;;;7.50;1.00;;;;;;5074485;28;20093;-74
2022/02/22 07:03:05;;;;;;;24.15;5.15;;;7.60;1.00;;;;;;5074623;28;20113;-74
2022/02/22 07:05:32;;;;;;;28.05;5.13;;;7.60;1.00;;;;;;5074399;28;20041;-74
2022/02/22 07:07:58;;;;;;;26.83;4.53;;;7.60;1.00;;;;;;5074208;28;20167;-74
2022/02/22 07:10:25;;;;;;;33.67;6.05;;;7.60;1.00;;;;;;5074065;28;20094;-74
2022/02/22 07:12:51;;;;;;;25.02;5.00;;;7.60;1.00;;;;;;5073730;28;20056;-74
2022/02/22 07:15:17;;;;;;;26.67;5.55;;;7.70;1.00;;;;;;5077039;28;20116;-73
2022/02/22 07:17:47;;;;;;;25.65;4.63;;;7.70;1.00;;;;;;5078140;28;20093;-74
2022/02/22 07:20:14;;;;;;;26.87;4.90;;;7.80;1.00;;;;;;5077885;28;20503;-74
2022/02/22 07:22:40;;;;;;;29.35;6.18;;;7.80;1.00;;;;;;5077646;28;20044;-74
2022/02/22 07:25:08;;;;;;;22.08;4.63;;;7.80;1.00;;;;;;5077663;28;20044;-74
2022/02/22 07:27:34;;;;;;;28.20;5.63;;;7.80;1.00;;;;;;5077377;28;20029;-74
2022/02/22 07:30:00;;;;;;;33.20;5.85;;;7.80;1.00;;;;;;5077381;28;20062;-74
2022/02/22 07:32:26;;;;;;;26.35;4.95;;;8.00;1.00;;;;;;5081196;28;20060;-74
2022/02/22 07:34:51;;;;;;;29.05;5.32;;;7.90;1.00;;;;;;5076870;28;20117;-74
2022/02/22 07:37:17;;;;;;;26.60;4.63;;;8.00;1.00;;;;;;5090603;28;20051;-73
2022/02/22 07:39:43;;;;;;;25.60;5.50;;;7.90;1.00;;;;;;5098571;28;20093;-73
2022/02/22 07:42:09;;;;;;;29.13;5.63;;;7.90;1.00;;;;;;5093811;28;20039;-74
2022/02/22 07:44:35;;;;;;;27.10;6.60;;;7.90;1.00;;;;;;5077164;28;20048;-73
2022/02/22 07:47:00;;;;;;;35.15;6.47;;;7.90;1.00;;;;;;5077483;28;20063;-74
2022/02/22 07:49:26;;;;;;;30.48;6.38;;;8.00;1.00;;;;;;5076709;28;20044;-74
2022/02/22 07:51:52;;;;;;;28.98;5.18;;;8.00;1.00;;;;;;5077225;28;20048;-74
2022/02/22 07:54:18;;;;;;;33.15;5.47;;;8.10;1.00;;;;;;5076888;28;20386;-74
2022/02/22 07:56:44;;;;;;;34.67;5.53;;;8.20;1.00;;;;;;5076989;28;20165;-74
2022/02/22 07:59:10;;;;;;;31.85;6.20;;;8.20;1.00;;;;;;5077167;28;20032;-74
2022/02/22 08:01:35;;;;;;;38.38;7.20;;;8.20;1.00;;;;;;5091962;28;20089;-74
2022/02/22 08:04:01;;;;;;;25.65;5.20;;;8.20;1.00;;;;;;5097025;28;20050;-74
2022/02/22 08:06:27;;;;;;;29.83;5.15;;;8.30;1.00;;;;;;5096556;28;20127;-74
2022/02/22 08:08:53;;;;;;;33.47;6.90;;;8.40;1.00;;;;;;5096965;28;20112;-74
2022/02/22 08:11:19;;;;;;;33.42;6.80;;;8.40;1.00;;;;;;5096698;28;20038;-74
2022/02/22 08:13:45;;;;;;;35.90;5.88;;;8.50;1.00;;;;;;5097083;28;20063;-73
2022/02/22 08:16:11;;;;;;;31.83;5.47;;;8.50;1.00;;;;;;5088952;28;20067;-73
2022/02/22 08:18:37;;;;;;;27.48;5.32;;;8.60;1.00;;;;;;5096965;28;20032;-73
2022/02/22 08:21:03;;;;;;;29.48;5.63;;;8.70;1.00;;;;;;5087134;28;20042;-73
2022/02/22 08:23:31;;;;;;;36.17;6.50;;;8.50;1.00;;;;;;5089272;28;20564;-79
2022/02/22 08:26:04;;;;;;;32.95;5.78;;;8.60;1.00;;;;;;5085910;28;20032;-77
2022/02/22 08:28:30;;;;;;;25.52;5.53;;;8.70;1.00;;;;;;5089654;28;20028;-79
2022/02/22 08:30:58;;;;;;;31.98;6.00;;;8.60;1.00;;;;;;5082505;28;20044;-78
2022/02/22 08:33:23;;;;;;;29.92;5.78;;;8.60;1.00;;;;;;5085153;28;20055;-77
2022/02/22 08:35:49;;;;;;;25.17;6.32;;;8.60;1.00;;;;;;5088407;28;20036;-78
2022/02/22 08:38:16;;;;;;;28.10;5.40;;;8.70;1.00;;;;;;5080986;28;20115;-77
2022/02/22 08:40:42;;;;;;;33.05;5.95;;;8.80;1.00;;;;;;5083430;28;20075;-78
2022/02/22 08:43:08;;;;;;;23.40;4.97;;;8.70;1.00;;;;;;5088307;28;20561;-78
2022/02/22 08:45:34;;;;;;;30.08;5.68;;;8.70;1.00;;;;;;5088184;28;20032;-79
2022/02/22 08:48:00;;;;;;;27.33;5.75;;;8.70;1.00;;;;;;5082509;28;20043;-76
2022/02/22 08:50:26;;;;;;;27.50;5.25;;;8.70;1.00;;;;;;5081286;28;20044;-78
2022/02/22 08:52:52;;;;;;;26.42;5.47;;;8.80;1.00;;;;;;5083974;28;20040;-78
2022/02/22 08:55:19;;;;;;;27.30;5.45;;;8.90;1.00;;;;;;5081188;28;20045;-74
2022/02/22 08:57:45;;;;;;;30.08;6.43;;;8.90;1.00;;;;;;5085916;28;20028;-73
2022/02/22 09:00:12;;;;;;;31.90;6.30;;;9.20;1.00;;;;;;5093862;28;20135;-74
2022/02/22 09:02:39;;;;;;;27.55;6.07;;;9.20;1.00;;;;;;5087283;28;20040;-74
2022/02/22 09:05:06;;;;;;;24.48;5.20;;;9.00;1.00;;;;;;5085591;28;20127;-73
2022/02/22 09:07:32;;;;;;;34.75;6.55;;;9.10;1.00;;;;;;5093347;28;20088;-73
2022/02/22 09:09:58;;;;;;;29.75;5.65;;;9.30;1.00;;;;;;5096005;28;20032;-73
2022/02/22 09:12:23;;;;;;;29.70;6.20;;;9.20;1.00;;;;;;5092355;28;20045;-73
2022/02/22 09:14:49;;;;;;;38.97;9.77;;;9.10;1.00;;;;;;5076154;28;20085;-72
2022/02/22 09:17:15;;;;;;;30.27;6.18;;;9.10;1.00;;;;;;5073967;28;20123;-72
2022/02/22 09:19:41;;;;;;;29.08;5.22;;;9.30;1.00;;;;;;5075118;28;20128;-72
2022/02/22 09:22:08;;;;;;;31.38;6.60;;;9.30;1.00;;;;;;5079529;28;20050;-73
2022/02/22 09:24:34;;;;;;;26.05;5.35;;;9.20;1.00;;;;;;5083832;28;20032;-72
2022/02/22 09:26:59;;;;;;;27.35;5.30;;;9.30;1.00;;;;;;5094665;28;20097;-72
2022/02/22 09:29:25;;;;;;;30.70;6.05;;;9.30;1.00;;;;;;5081307;28;20490;-72
2022/02/22 09:31:51;;;;;;;35.50;5.85;;;9.40;1.00;;;;;;5075301;28;20059;-71
2022/02/22 09:34:17;;;;;;;33.92;5.60;;;9.30;1.00;;;;;;5075096;28;20028;-71
2022/02/22 09:36:44;;;;;;;33.20;5.68;;;9.30;1.00;;;;;;5075847;28;20051;-71
2022/02/22 09:39:10;;;;;;;40.50;5.60;;;9.50;1.00;;;;;;5090259;28;20035;-73
2022/02/22 09:41:36;;;;;;;24.88;5.05;;;9.50;1.00;;;;;;5093519;28;20036;-73
2022/02/22 09:44:02;;;;;;;27.48;5.53;;;9.50;1.00;;;;;;5095969;28;20040;-73
2022/02/22 09:46:30;;;;;;;35.35;5.97;;;9.70;1.00;;;;;;5095491;28;20032;-73
2022/02/22 09:48:56;;;;;;;23.17;5.18;;;9.80;1.00;;;;;;5095235;28;20040;-73
2022/02/22 09:51:22;;;;;;;33.22;6.40;;;9.60;1.00;;;;;;5084159;28;20158;-72
2022/02/22 09:53:48;;;;;;;27.92;5.68;;;9.70;1.00;;;;;;5093194;28;20036;-72
2022/02/22 09:56:14;;;;;;;23.17;5.15;;;9.70;1.00;;;;;;5095390;28;20123;-72
2022/02/22 09:58:40;;;;;;;32.35;5.72;;;9.70;1.00;;;;;;5094817;28;20075;-72
2022/02/22 10:01:07;;;;;;;34.20;6.63;;;9.50;1.00;;;;;;5090371;28;20435;-72
2022/02/22 10:03:33;;;;;;;29.15;5.45;;;9.50;1.00;;;;;;5092844;28;20042;-73
2022/02/22 10:06:01;;;;;;;29.80;5.45;;;9.50;1.00;;;;;;5094199;28;20160;-73
2022/02/22 10:08:30;;;;;;;31.70;6.60;;;9.60;1.00;;;;;;5075667;28;20063;-73
2022/02/22 10:11:15;;;;;;;26.70;6.22;;;9.80;1.00;;;;;;5094010;28;20043;-73
2022/02/22 10:13:46;;;;;;;27.58;6.00;;;9.80;1.00;;;;;;5080645;28;20628;-73
2022/02/22 10:16:13;;;;;;;30.02;5.72;;;9.90;1.00;;;;;;5074747;28;20028;-72
2022/02/22 10:18:51;;;;;;;27.92;5.18;;;10.10;1.00;;;;;;5086832;28;20044;-72
2022/02/22 10:21:18;;;;;;;25.80;5.28;;;10.20;1.00;;;;;;5082390;28;20035;-72
2022/02/22 10:23:44;;;;;;;32.47;6.05;;;10.10;1.00;;;;;;5085824;28;20502;-72
2022/02/22 10:26:21;;;;;;;28.92;5.43;;;10.20;1.00;;;;;;5088162;28;20535;-73
2022/02/22 10:28:47;;;;;;;33.60;6.45;;;9.90;1.00;;;;;;5094240;28;20044;-75
2022/02/22 10:31:13;;;;;;;31.48;6.20;;;9.90;1.00;;;;;;5075459;28;20058;-74
2022/02/22 10:33:44;;;;;;;29.67;5.70;;;9.90;1.00;;;;;;5084949;28;20055;-73
2022/02/22 10:36:17;;;;;;;;;;;9.90;1.00;;;;;;5092386;28;20062;-73
2022/02/22 10:38:44;;;;;;;26.10;5.72;;;10.00;1.00;;;;;;5089999;28;19908;-73
2022/02/22 10:41:15;;;;;;;26.35;5.45;;;9.90;1.00;;;;;;5073394;28;20041;-73
2022/02/22 10:43:51;;;;;;;35.30;6.05;;;10.00;1.00;;;;;;5092003;28;20032;-72
2022/02/22 10:46:27;;;;;;;28.33;5.50;;;9.60;1.00;;;;;;5077310;28;20073;-73
2022/02/22 10:49:14;;;;;;;30.85;5.53;;;9.90;1.00;;;;;;5095606;28;20043;-73
2022/02/22 10:51:43;;;;;;;29.92;4.82;;;9.80;1.00;;;;;;5089226;28;20048;-74
2022/02/22 10:54:27;;;;;;;31.52;5.60;;;9.70;1.00;;;;;;5077546;28;20162;-74
2022/02/22 10:56:54;;;;;;;33.33;5.82;;;9.90;1.00;;;;;;5078481;28;20047;-73
2022/02/22 10:59:23;;;;;;;34.67;6.22;;;9.90;1.00;;;;;;5077592;28;20491;-72
2022/02/22 11:01:52;;;;;;;28.83;5.38;;;9.90;1.00;;;;;;5084832;28;20036;-75
2022/02/22 11:04:19;;;;;;;26.73;5.63;;;10.00;1.00;;;;;;5098032;28;20039;-74
2022/02/22 11:06:45;;;;;;;29.90;5.50;;;10.20;1.00;;;;;;5077754;28;20498;-71
2022/02/22 11:09:17;;;;;;;29.85;5.05;;;10.30;1.00;;;;;;5077647;28;20153;-72
2022/02/22 11:11:52;;;;;;;27.00;5.07;;;10.00;1.00;;;;;;5077327;28;20131;-74
2022/02/22 11:14:26;;;;;;;29.95;5.47;;;10.40;1.00;;;;;;5076656;28;20029;-73
2022/02/22 11:16:55;;;;;;;33.55;5.90;;;10.50;1.00;;;;;;5080822;28;20063;-69
2022/02/22 11:19:37;;;;;;;26.38;5.40;;;10.40;1.00;;;;;;5095817;28;20076;-71
2022/02/22 11:22:23;;;;;;;26.65;5.25;;;10.70;1.00;;;;;;5081363;28;20056;-71
2022/02/22 11:24:54;;;;;;;28.98;5.05;;;10.80;1.00;;;;;;5083484;28;20070;-71
2022/02/22 11:27:42;;;;;;;25.77;5.57;;;11.10;1.00;;;;;;5078321;28;20032;-70
2022/02/22 11:30:15;;;;;;;23.55;5.03;;;11.00;1.00;;;;;;5077188;28;20115;-71
2022/02/22 11:32:57;;;;;;;27.55;4.22;;;11.20;1.00;;;;;;5084761;28;20148;-71
2022/02/22 11:35:23;;;;;;;26.85;4.97;;;10.80;1.00;;;;;;5090439;28;20036;-71
2022/02/22 11:37:51;;;;;;;29.50;5.50;;;10.70;1.00;;;;;;5097933;28;20066;-71
2022/02/22 11:40:25;;;;;;;24.23;5.78;;;10.50;1.00;;;;;;5097373;28;20046;-71
2022/02/22 11:42:51;;;;;;;21.77;4.55;;;10.30;1.00;;;;;;5097725;28;20043;-71
2022/02/22 11:45:26;;;;;;;21.08;4.85;;;10.50;1.00;;;;;;5096825;28;20043;-71
2022/02/22 11:48:19;;;;;;;28.65;5.95;;;10.40;1.00;;;;;;5097251;28;20044;-71
2022/02/22 11:50:47;;;;;;;31.13;5.50;;;10.40;1.00;;;;;;5096969;28;20035;-71
2022/02/22 11:53:19;;;;;;;18.33;4.25;;;10.60;1.00;;;;;;5097517;28;20048;-71
2022/02/22 11:55:47;;;;;;;33.10;5.35;;;10.60;1.00;;;;;;5098072;28;20028;-71
2022/02/22 11:58:22;;;;;;;27.88;4.97;;;10.80;1.00;;;;;;5096022;28;20049;-71
2022/02/22 12:00:50;;;;;;;27.33;5.55;;;11.00;1.00;;;;;;5076691;28;20174;-71
2022/02/22 12:03:22;;;;;;;24.33;4.90;;;11.20;1.00;;;;;;5093312;28;20048;-71
2022/02/22 12:06:00;;;;;;;26.88;5.18;;;11.20;1.00;;;;;;5096665;28;20043;-71
2022/02/22 12:08:38;;;;;;;23.63;5.25;;;11.10;1.00;;;;;;5093165;28;20060;-71
2022/02/22 12:11:07;;;;;;;23.85;4.55;;;11.20;1.00;;;;;;5093836;28;20028;-71
2022/02/22 12:13:42;;;;;;;23.23;4.72;;;11.30;1.00;;;;;;5096285;28;20044;-71
2022/02/22 12:16:20;;;;;;;21.73;4.20;;;11.40;1.00;;;;;;5097125;28;20032;-71
2022/02/22 12:18:48;;;;;;;22.83;5.07;;;11.30;1.00;;;;;;5096616;28;20051;-71
2022/02/22 12:21:17;;;;;;;24.02;4.97;;;11.00;1.00;;;;;;5093825;28;20032;-71
2022/02/22 12:23:43;;;;;;;24.33;4.32;;;10.80;1.00;;;;;;5095661;28;20054;-71
2022/02/22 12:26:14;;;;;;;19.35;4.28;;;10.80;1.00;;;;;;5096912;28;20039;-71
2022/02/22 12:29:03;;;;;;;24.63;4.97;;;10.80;1.00;;;;;;5094318;28;20051;-71
2022/02/22 12:31:42;;;;;;;24.35;4.10;;;10.90;1.00;;;;;;5093953;28;20523;-71
2022/02/22 12:34:12;;;;;;;26.85;5.15;;;10.70;1.00;;;;;;5093769;28;20058;-70
2022/02/22 12:36:40;;;;;;;19.50;4.65;;;10.70;1.00;;;;;;5091012;28;20547;-71
2022/02/22 12:39:12;;;;;;;23.25;5.63;;;10.90;1.00;;;;;;5083458;28;20179;-71
2022/02/22 12:41:40;;;;;;;20.20;4.45;;;11.00;1.00;;;;;;5020916;28;20129;-70
2022/02/22 12:44:09;;;;;;;18.35;4.50;;;10.90;1.00;;;;;;5015371;28;20037;-70
2022/02/22 12:46:36;;;;;;;16.70;3.97;;;11.00;1.00;;;;;;5013754;28;20065;-70
2022/02/22 12:49:10;;;;;;;22.92;4.22;;;11.00;1.00;;;;;;5010636;28;20046;-69
2022/02/22 12:51:37;;;;;;;18.75;4.28;;;10.80;1.00;;;;;;5015239;28;20041;-70
2022/02/22 12:54:02;;;;;;;23.10;4.50;;;10.70;1.00;;;;;;5015219;28;20026;-70
2022/02/22 12:56:34;;;;;;;26.50;4.47;;;10.60;1.00;;;;;;5014387;28;20456;-71
2022/02/22 12:58:59;;;;;;;;;;;10.70;1.00;;;;;;5016153;28;20076;-70